sensor_id;sensor_type;location;lat;lon;timestamp;P1;durP1;ratioP1;P2;durP2;ratioP2
17153;SDS011;8692;52.164;7.558;2022-12-18T00:00:15;23.67;;;13.63;;
17153;SDS011;8692;52.164;7.558;2022-12-18T00:02:44;27.20;;;14.13;;
17153;SDS011;8692;52.164;7.558;2022-12-18T00:05:12;27.20;;;14.40;;
17153;SDS011;8692;52.164;7.558;2022-12-18T00:07:43;25.80;;;14.63;;
17153;SDS011;8692;52.164;7.558;2022-12-18T00:10:11;25.07;;;13.10;;
17153;SDS011;8692;52.164;7.558;2022-12-18T00:12:45;25.40;;;13.47;;
17153;SDS011;8692;52.164;7.558;2022-12-18T00:15:13;29.00;;;15.17;;
17153;SDS011;8692;52.164;7.558;2022-12-18T00:17:41;26.87;;;13.47;;
17153;SDS011;8692;52.164;7.558;2022-12-18T00:20:10;28.17;;;13.30;;
17153;SDS011;8692;52.164;7.558;2022-12-18T00:22:40;27.90;;;13.80;;
17153;SDS011;8692;52.164;7.558;2022-12-18T00:25:08;27.27;;;15.53;;
17153;SDS011;8692;52.164;7.558;2022-12-18T00:27:36;27.17;;;14.03;;
17153;SDS011;8692;52.164;7.558;2022-12-18T00:30:07;30.40;;;13.93;;
17153;SDS011;8692;52.164;7.558;2022-12-18T00:32:36;37.17;;;16.73;;
17153;SDS011;8692;52.164;7.558;2022-12-18T00:35:04;26.70;;;13.93;;
17153;SDS011;8692;52.164;7.558;2022-12-18T00:37:36;25.50;;;14.03;;
17153;SDS011;8692;52.164;7.558;2022-12-18T00:40:07;32.57;;;15.83;;
17153;SDS011;8692;52.164;7.558;2022-12-18T00:42:36;34.70;;;16.33;;
17153;SDS011;8692;52.164;7.558;2022-12-18T00:45:23;30.30;;;17.70;;
17153;SDS011;8692;52.164;7.558;2022-12-18T00:47:53;33.83;;;16.83;;
17153;SDS011;8692;52.164;7.558;2022-12-18T00:50:24;28.87;;;15.40;;
17153;SDS011;8692;52.164;7.558;2022-12-18T00:52:54;31.07;;;14.00;;
17153;SDS011;8692;52.164;7.558;2022-12-18T00:55:23;29.57;;;14.30;;
17153;SDS011;8692;52.164;7.558;2022-12-18T00:57:52;33.23;;;15.90;;
17153;SDS011;8692;52.164;7.558;2022-12-18T01:00:21;30.20;;;15.67;;
17153;SDS011;8692;52.164;7.558;2022-12-18T01:02:51;31.50;;;15.90;;
17153;SDS011;8692;52.164;7.558;2022-12-18T01:05:20;40.03;;;18.88;;
17153;SDS011;8692;52.164;7.558;2022-12-18T01:07:48;39.67;;;24.88;;
17153;SDS011;8692;52.164;7.558;2022-12-18T01:10:16;38.50;;;19.90;;
17153;SDS011;8692;52.164;7.558;2022-12-18T01:12:45;33.77;;;15.63;;
17153;SDS011;8692;52.164;7.558;2022-12-18T01:15:13;33.00;;;16.20;;
17153;SDS011;8692;52.164;7.558;2022-12-18T01:17:42;32.27;;;16.67;;
17153;SDS011;8692;52.164;7.558;2022-12-18T01:20:14;29.33;;;15.50;;
17153;SDS011;8692;52.164;7.558;2022-12-18T01:22:42;30.33;;;18.93;;
17153;SDS011;8692;52.164;7.558;2022-12-18T01:25:10;37.50;;;19.67;;
17153;SDS011;8692;52.164;7.558;2022-12-18T01:27:38;29.57;;;17.57;;
17153;SDS011;8692;52.164;7.558;2022-12-18T01:30:10;32.37;;;18.17;;
17153;SDS011;8692;52.164;7.558;2022-12-18T01:32:38;29.10;;;15.53;;
17153;SDS011;8692;52.164;7.558;2022-12-18T01:35:07;32.47;;;16.40;;
17153;SDS011;8692;52.164;7.558;2022-12-18T01:37:38;32.97;;;18.67;;
17153;SDS011;8692;52.164;7.558;2022-12-18T01:40:07;33.77;;;17.90;;
17153;SDS011;8692;52.164;7.558;2022-12-18T01:42:39;36.77;;;19.13;;
17153;SDS011;8692;52.164;7.558;2022-12-18T01:45:21;33.97;;;18.30;;
17153;SDS011;8692;52.164;7.558;2022-12-18T01:47:52;31.97;;;17.67;;
17153;SDS011;8692;52.164;7.558;2022-12-18T01:50:23;34.37;;;19.43;;
17153;SDS011;8692;52.164;7.558;2022-12-18T01:52:56;35.43;;;18.90;;
17153;SDS011;8692;52.164;7.558;2022-12-18T01:55:28;35.23;;;18.63;;
17153;SDS011;8692;52.164;7.558;2022-12-18T01:57:59;36.00;;;18.80;;
17153;SDS011;8692;52.164;7.558;2022-12-18T02:00:28;27.50;;;16.33;;
17153;SDS011;8692;52.164;7.558;2022-12-18T02:02:59;32.10;;;15.60;;
17153;SDS011;8692;52.164;7.558;2022-12-18T02:05:33;29.73;;;15.97;;
17153;SDS011;8692;52.164;7.558;2022-12-18T02:08:10;32.70;;;15.27;;
17153;SDS011;8692;52.164;7.558;2022-12-18T02:10:48;31.60;;;16.33;;
17153;SDS011;8692;52.164;7.558;2022-12-18T02:13:27;30.23;;;15.70;;
17153;SDS011;8692;52.164;7.558;2022-12-18T02:16:08;29.13;;;15.50;;
17153;SDS011;8692;52.164;7.558;2022-12-18T02:18:49;29.17;;;18.07;;
17153;SDS011;8692;52.164;7.558;2022-12-18T02:21:24;32.50;;;18.40;;
17153;SDS011;8692;52.164;7.558;2022-12-18T02:24:08;31.67;;;18.37;;
17153;SDS011;8692;52.164;7.558;2022-12-18T02:26:47;32.30;;;18.37;;
17153;SDS011;8692;52.164;7.558;2022-12-18T02:29:21;30.47;;;17.97;;
17153;SDS011;8692;52.164;7.558;2022-12-18T02:31:54;32.73;;;17.47;;
17153;SDS011;8692;52.164;7.558;2022-12-18T02:34:25;35.70;;;18.13;;
17153;SDS011;8692;52.164;7.558;2022-12-18T02:36:57;33.57;;;19.53;;
17153;SDS011;8692;52.164;7.558;2022-12-18T02:39:28;27.43;;;18.00;;
17153;SDS011;8692;52.164;7.558;2022-12-18T02:42:03;33.93;;;18.60;;
17153;SDS011;8692;52.164;7.558;2022-12-18T02:44:41;33.73;;;18.23;;
17153;SDS011;8692;52.164;7.558;2022-12-18T02:47:15;28.50;;;17.87;;
17153;SDS011;8692;52.164;7.558;2022-12-18T02:49:50;30.43;;;17.83;;
17153;SDS011;8692;52.164;7.558;2022-12-18T02:52:31;29.47;;;17.47;;
17153;SDS011;8692;52.164;7.558;2022-12-18T02:55:09;31.77;;;18.97;;
17153;SDS011;8692;52.164;7.558;2022-12-18T02:57:52;27.73;;;16.73;;
17153;SDS011;8692;52.164;7.558;2022-12-18T03:00:28;32.90;;;17.83;;
17153;SDS011;8692;52.164;7.558;2022-12-18T03:03:02;30.33;;;17.83;;
17153;SDS011;8692;52.164;7.558;2022-12-18T03:05:36;28.47;;;16.37;;
17153;SDS011;8692;52.164;7.558;2022-12-18T03:08:12;33.27;;;19.37;;
17153;SDS011;8692;52.164;7.558;2022-12-18T03:10:48;27.47;;;17.00;;
17153;SDS011;8692;52.164;7.558;2022-12-18T03:13:25;33.87;;;19.23;;
17153;SDS011;8692;52.164;7.558;2022-12-18T03:16:01;34.23;;;18.70;;
17153;SDS011;8692;52.164;7.558;2022-12-18T03:18:32;29.80;;;17.53;;
17153;SDS011;8692;52.164;7.558;2022-12-18T03:21:05;31.53;;;15.57;;
17153;SDS011;8692;52.164;7.558;2022-12-18T03:23:39;31.50;;;14.87;;
17153;SDS011;8692;52.164;7.558;2022-12-18T03:26:12;32.27;;;18.67;;
17153;SDS011;8692;52.164;7.558;2022-12-18T03:28:52;33.80;;;18.23;;
17153;SDS011;8692;52.164;7.558;2022-12-18T03:31:26;34.17;;;17.87;;
17153;SDS011;8692;52.164;7.558;2022-12-18T03:34:00;35.03;;;19.57;;
17153;SDS011;8692;52.164;7.558;2022-12-18T03:36:39;34.20;;;17.47;;
17153;SDS011;8692;52.164;7.558;2022-12-18T03:39:07;31.40;;;17.70;;
17153;SDS011;8692;52.164;7.558;2022-12-18T03:41:38;30.47;;;18.27;;
17153;SDS011;8692;52.164;7.558;2022-12-18T03:44:30;33.80;;;18.07;;
17153;SDS011;8692;52.164;7.558;2022-12-18T03:47:05;28.70;;;18.53;;
17153;SDS011;8692;52.164;7.558;2022-12-18T03:49:38;29.23;;;17.47;;
17153;SDS011;8692;52.164;7.558;2022-12-18T03:52:13;28.77;;;16.53;;
17153;SDS011;8692;52.164;7.558;2022-12-18T03:54:48;31.87;;;17.37;;
17153;SDS011;8692;52.164;7.558;2022-12-18T03:57:18;32.83;;;17.83;;
17153;SDS011;8692;52.164;7.558;2022-12-18T03:59:51;24.00;;;14.27;;
17153;SDS011;8692;52.164;7.558;2022-12-18T04:02:28;22.57;;;12.80;;
17153;SDS011;8692;52.164;7.558;2022-12-18T04:05:02;28.13;;;16.53;;
17153;SDS011;8692;52.164;7.558;2022-12-18T04:07:35;27.43;;;16.67;;
17153;SDS011;8692;52.164;7.558;2022-12-18T04:10:07;24.00;;;13.43;;
17153;SDS011;8692;52.164;7.558;2022-12-18T04:12:36;25.03;;;13.03;;
17153;SDS011;8692;52.164;7.558;2022-12-18T04:15:10;24.07;;;13.17;;
17153;SDS011;8692;52.164;7.558;2022-12-18T04:17:39;27.60;;;15.37;;
17153;SDS011;8692;52.164;7.558;2022-12-18T04:20:16;28.80;;;15.53;;
17153;SDS011;8692;52.164;7.558;2022-12-18T04:22:44;27.07;;;15.47;;
17153;SDS011;8692;52.164;7.558;2022-12-18T04:25:13;29.07;;;16.30;;
17153;SDS011;8692;52.164;7.558;2022-12-18T04:27:53;27.50;;;16.53;;
17153;SDS011;8692;52.164;7.558;2022-12-18T04:30:23;21.47;;;12.93;;
17153;SDS011;8692;52.164;7.558;2022-12-18T04:32:53;24.10;;;12.97;;
17153;SDS011;8692;52.164;7.558;2022-12-18T04:35:21;28.93;;;12.87;;
17153;SDS011;8692;52.164;7.558;2022-12-18T04:37:49;27.03;;;15.93;;
17153;SDS011;8692;52.164;7.558;2022-12-18T04:40:20;26.73;;;16.00;;
17153;SDS011;8692;52.164;7.558;2022-12-18T04:42:49;28.60;;;16.03;;
17153;SDS011;8692;52.164;7.558;2022-12-18T04:45:17;29.80;;;14.43;;
17153;SDS011;8692;52.164;7.558;2022-12-18T04:47:49;21.40;;;13.77;;
17153;SDS011;8692;52.164;7.558;2022-12-18T04:50:17;20.53;;;13.67;;
17153;SDS011;8692;52.164;7.558;2022-12-18T04:52:45;24.47;;;14.63;;
17153;SDS011;8692;52.164;7.558;2022-12-18T04:55:13;23.30;;;14.00;;
17153;SDS011;8692;52.164;7.558;2022-12-18T04:57:43;22.47;;;14.37;;
17153;SDS011;8692;52.164;7.558;2022-12-18T05:00:12;23.60;;;13.27;;
17153;SDS011;8692;52.164;7.558;2022-12-18T05:02:43;26.23;;;14.17;;
17153;SDS011;8692;52.164;7.558;2022-12-18T05:05:15;21.97;;;13.90;;
17153;SDS011;8692;52.164;7.558;2022-12-18T05:07:45;19.53;;;12.70;;
17153;SDS011;8692;52.164;7.558;2022-12-18T05:10:13;21.73;;;13.40;;
17153;SDS011;8692;52.164;7.558;2022-12-18T05:12:41;24.00;;;13.70;;
17153;SDS011;8692;52.164;7.558;2022-12-18T05:15:24;20.63;;;11.77;;
17153;SDS011;8692;52.164;7.558;2022-12-18T05:17:56;22.57;;;12.37;;
17153;SDS011;8692;52.164;7.558;2022-12-18T05:20:27;23.93;;;13.03;;
17153;SDS011;8692;52.164;7.558;2022-12-18T05:22:58;19.73;;;10.93;;
17153;SDS011;8692;52.164;7.558;2022-12-18T05:25:28;18.20;;;11.30;;
17153;SDS011;8692;52.164;7.558;2022-12-18T05:27:57;20.20;;;9.87;;
17153;SDS011;8692;52.164;7.558;2022-12-18T05:30:25;15.07;;;8.47;;
17153;SDS011;8692;52.164;7.558;2022-12-18T05:32:53;18.27;;;10.67;;
17153;SDS011;8692;52.164;7.558;2022-12-18T05:35:22;17.93;;;10.77;;
17153;SDS011;8692;52.164;7.558;2022-12-18T05:37:51;18.23;;;11.37;;
17153;SDS011;8692;52.164;7.558;2022-12-18T05:40:19;16.40;;;9.20;;
17153;SDS011;8692;52.164;7.558;2022-12-18T05:42:47;15.20;;;8.10;;
17153;SDS011;8692;52.164;7.558;2022-12-18T05:45:15;14.27;;;8.13;;
17153;SDS011;8692;52.164;7.558;2022-12-18T05:47:46;15.60;;;9.03;;
17153;SDS011;8692;52.164;7.558;2022-12-18T05:50:16;14.60;;;7.60;;
17153;SDS011;8692;52.164;7.558;2022-12-18T05:52:48;15.23;;;7.83;;
17153;SDS011;8692;52.164;7.558;2022-12-18T05:55:18;14.77;;;8.90;;
17153;SDS011;8692;52.164;7.558;2022-12-18T05:57:46;14.70;;;7.77;;
17153;SDS011;8692;52.164;7.558;2022-12-18T06:00:16;16.63;;;7.50;;
17153;SDS011;8692;52.164;7.558;2022-12-18T06:02:47;13.10;;;7.80;;
17153;SDS011;8692;52.164;7.558;2022-12-18T06:05:15;13.10;;;8.00;;
17153;SDS011;8692;52.164;7.558;2022-12-18T06:07:46;15.73;;;8.23;;
17153;SDS011;8692;52.164;7.558;2022-12-18T06:10:14;18.13;;;9.50;;
17153;SDS011;8692;52.164;7.558;2022-12-18T06:12:43;14.23;;;7.20;;
17153;SDS011;8692;52.164;7.558;2022-12-18T06:15:12;12.23;;;7.63;;
17153;SDS011;8692;52.164;7.558;2022-12-18T06:17:42;11.90;;;8.07;;
17153;SDS011;8692;52.164;7.558;2022-12-18T06:20:13;12.00;;;7.77;;
17153;SDS011;8692;52.164;7.558;2022-12-18T06:22:42;12.33;;;6.23;;
17153;SDS011;8692;52.164;7.558;2022-12-18T06:25:12;9.07;;;6.00;;
17153;SDS011;8692;52.164;7.558;2022-12-18T06:27:44;14.27;;;7.13;;
17153;SDS011;8692;52.164;7.558;2022-12-18T06:30:14;10.70;;;7.37;;
17153;SDS011;8692;52.164;7.558;2022-12-18T06:32:45;14.83;;;7.43;;
17153;SDS011;8692;52.164;7.558;2022-12-18T06:35:21;10.07;;;6.77;;
17153;SDS011;8692;52.164;7.558;2022-12-18T06:37:52;11.33;;;6.37;;
17153;SDS011;8692;52.164;7.558;2022-12-18T06:40:22;9.17;;;6.47;;
17153;SDS011;8692;52.164;7.558;2022-12-18T06:42:52;9.37;;;5.10;;
17153;SDS011;8692;52.164;7.558;2022-12-18T06:45:20;9.53;;;5.40;;
17153;SDS011;8692;52.164;7.558;2022-12-18T06:47:48;9.47;;;5.67;;
17153;SDS011;8692;52.164;7.558;2022-12-18T06:50:17;9.10;;;5.87;;
17153;SDS011;8692;52.164;7.558;2022-12-18T06:52:45;8.93;;;5.73;;
17153;SDS011;8692;52.164;7.558;2022-12-18T06:55:13;10.23;;;5.47;;
17153;SDS011;8692;52.164;7.558;2022-12-18T06:57:43;10.83;;;5.20;;
17153;SDS011;8692;52.164;7.558;2022-12-18T07:00:13;9.20;;;6.03;;
17153;SDS011;8692;52.164;7.558;2022-12-18T07:02:43;10.57;;;4.63;;
17153;SDS011;8692;52.164;7.558;2022-12-18T07:05:12;9.87;;;5.33;;
17153;SDS011;8692;52.164;7.558;2022-12-18T07:07:40;9.17;;;5.13;;
17153;SDS011;8692;52.164;7.558;2022-12-18T07:10:08;9.07;;;5.23;;
17153;SDS011;8692;52.164;7.558;2022-12-18T07:12:39;8.73;;;5.40;;
17153;SDS011;8692;52.164;7.558;2022-12-18T07:15:07;6.93;;;4.77;;
17153;SDS011;8692;52.164;7.558;2022-12-18T07:17:37;7.97;;;4.53;;
17153;SDS011;8692;52.164;7.558;2022-12-18T07:20:06;8.83;;;4.50;;
17153;SDS011;8692;52.164;7.558;2022-12-18T07:22:37;8.50;;;4.83;;
17153;SDS011;8692;52.164;7.558;2022-12-18T07:25:07;8.47;;;4.97;;
17153;SDS011;8692;52.164;7.558;2022-12-18T07:27:36;6.63;;;4.37;;
17153;SDS011;8692;52.164;7.558;2022-12-18T07:30:04;8.27;;;5.00;;
17153;SDS011;8692;52.164;7.558;2022-12-18T07:32:33;6.37;;;4.43;;
17153;SDS011;8692;52.164;7.558;2022-12-18T07:35:05;8.67;;;4.73;;
17153;SDS011;8692;52.164;7.558;2022-12-18T07:37:36;8.23;;;5.00;;
17153;SDS011;8692;52.164;7.558;2022-12-18T07:40:04;8.20;;;4.87;;
17153;SDS011;8692;52.164;7.558;2022-12-18T07:42:33;7.53;;;4.07;;
17153;SDS011;8692;52.164;7.558;2022-12-18T07:45:05;5.53;;;4.20;;
17153;SDS011;8692;52.164;7.558;2022-12-18T07:47:35;6.17;;;4.00;;
17153;SDS011;8692;52.164;7.558;2022-12-18T07:50:05;5.67;;;3.83;;
17153;SDS011;8692;52.164;7.558;2022-12-18T07:52:36;7.67;;;5.13;;
17153;SDS011;8692;52.164;7.558;2022-12-18T07:55:05;5.50;;;3.70;;
17153;SDS011;8692;52.164;7.558;2022-12-18T07:57:34;9.53;;;4.77;;
17153;SDS011;8692;52.164;7.558;2022-12-18T08:00:22;10.30;;;3.80;;
17153;SDS011;8692;52.164;7.558;2022-12-18T08:02:50;7.47;;;4.33;;
17153;SDS011;8692;52.164;7.558;2022-12-18T08:05:20;8.17;;;4.17;;
17153;SDS011;8692;52.164;7.558;2022-12-18T08:07:50;6.80;;;4.60;;
17153;SDS011;8692;52.164;7.558;2022-12-18T08:10:19;9.00;;;3.93;;
17153;SDS011;8692;52.164;7.558;2022-12-18T08:12:49;5.33;;;3.43;;
17153;SDS011;8692;52.164;7.558;2022-12-18T08:15:18;6.53;;;4.13;;
17153;SDS011;8692;52.164;7.558;2022-12-18T08:17:46;7.67;;;4.30;;
17153;SDS011;8692;52.164;7.558;2022-12-18T08:20:14;6.20;;;4.17;;
17153;SDS011;8692;52.164;7.558;2022-12-18T08:22:45;10.27;;;5.03;;
17153;SDS011;8692;52.164;7.558;2022-12-18T08:25:16;6.27;;;4.07;;
17153;SDS011;8692;52.164;7.558;2022-12-18T08:27:44;9.50;;;4.60;;
17153;SDS011;8692;52.164;7.558;2022-12-18T08:30:12;8.37;;;4.13;;
17153;SDS011;8692;52.164;7.558;2022-12-18T08:32:43;5.90;;;4.00;;
17153;SDS011;8692;52.164;7.558;2022-12-18T08:35:11;9.17;;;4.90;;
17153;SDS011;8692;52.164;7.558;2022-12-18T08:37:45;7.73;;;4.17;;
17153;SDS011;8692;52.164;7.558;2022-12-18T08:40:15;6.90;;;4.37;;
17153;SDS011;8692;52.164;7.558;2022-12-18T08:42:45;8.53;;;5.47;;
17153;SDS011;8692;52.164;7.558;2022-12-18T08:45:31;10.07;;;4.50;;
17153;SDS011;8692;52.164;7.558;2022-12-18T08:48:01;8.10;;;4.07;;
17153;SDS011;8692;52.164;7.558;2022-12-18T08:50:30;8.50;;;4.47;;
17153;SDS011;8692;52.164;7.558;2022-12-18T08:52:59;7.63;;;4.30;;
17153;SDS011;8692;52.164;7.558;2022-12-18T08:55:30;7.63;;;4.13;;
17153;SDS011;8692;52.164;7.558;2022-12-18T08:58:00;8.40;;;4.37;;
17153;SDS011;8692;52.164;7.558;2022-12-18T09:00:30;8.80;;;4.33;;
17153;SDS011;8692;52.164;7.558;2022-12-18T09:02:58;10.05;;;7.38;;
17153;SDS011;8692;52.164;7.558;2022-12-18T09:05:28;11.13;;;5.40;;
17153;SDS011;8692;52.164;7.558;2022-12-18T09:07:57;9.47;;;4.70;;
17153;SDS011;8692;52.164;7.558;2022-12-18T09:10:27;7.70;;;4.80;;
17153;SDS011;8692;52.164;7.558;2022-12-18T09:12:57;8.05;;;4.95;;
17153;SDS011;8692;52.164;7.558;2022-12-18T09:15:25;15.07;;;8.25;;
17153;SDS011;8692;52.164;7.558;2022-12-18T09:17:56;11.30;;;5.97;;
17153;SDS011;8692;52.164;7.558;2022-12-18T09:20:26;10.90;;;5.43;;
17153;SDS011;8692;52.164;7.558;2022-12-18T09:22:58;8.47;;;4.67;;
17153;SDS011;8692;52.164;7.558;2022-12-18T09:25:28;6.57;;;4.17;;
17153;SDS011;8692;52.164;7.558;2022-12-18T09:27:59;8.97;;;4.87;;
17153;SDS011;8692;52.164;7.558;2022-12-18T09:30:30;10.57;;;5.70;;
17153;SDS011;8692;52.164;7.558;2022-12-18T09:33:00;7.90;;;5.00;;
17153;SDS011;8692;52.164;7.558;2022-12-18T09:35:29;8.13;;;5.70;;
17153;SDS011;8692;52.164;7.558;2022-12-18T09:37:57;7.33;;;4.43;;
17153;SDS011;8692;52.164;7.558;2022-12-18T09:40:34;9.13;;;5.23;;
17153;SDS011;8692;52.164;7.558;2022-12-18T09:43:13;7.03;;;4.40;;
17153;SDS011;8692;52.164;7.558;2022-12-18T09:45:44;8.27;;;5.17;;
17153;SDS011;8692;52.164;7.558;2022-12-18T09:48:21;9.50;;;5.47;;
17153;SDS011;8692;52.164;7.558;2022-12-18T09:50:53;9.23;;;5.23;;
17153;SDS011;8692;52.164;7.558;2022-12-18T09:53:26;8.53;;;5.27;;
17153;SDS011;8692;52.164;7.558;2022-12-18T09:56:00;8.90;;;5.43;;
17153;SDS011;8692;52.164;7.558;2022-12-18T09:58:31;9.40;;;5.77;;
17153;SDS011;8692;52.164;7.558;2022-12-18T10:01:07;10.50;;;5.37;;
17153;SDS011;8692;52.164;7.558;2022-12-18T10:03:37;10.53;;;5.70;;
17153;SDS011;8692;52.164;7.558;2022-12-18T10:06:06;7.73;;;5.40;;
17153;SDS011;8692;52.164;7.558;2022-12-18T10:08:41;10.50;;;6.20;;
17153;SDS011;8692;52.164;7.558;2022-12-18T10:11:26;8.43;;;5.53;;
17153;SDS011;8692;52.164;7.558;2022-12-18T10:14:03;7.20;;;5.03;;
17153;SDS011;8692;52.164;7.558;2022-12-18T10:16:42;9.70;;;6.60;;
17153;SDS011;8692;52.164;7.558;2022-12-18T10:22:19;9.37;;;5.90;;
17153;SDS011;8692;52.164;7.558;2022-12-18T10:24:58;9.37;;;5.90;;
17153;SDS011;8692;52.164;7.558;2022-12-18T10:27:33;9.77;;;5.70;;
17153;SDS011;8692;52.164;7.558;2022-12-18T10:30:04;8.67;;;5.70;;
17153;SDS011;8692;52.164;7.558;2022-12-18T10:32:39;8.80;;;5.57;;
17153;SDS011;8692;52.164;7.558;2022-12-18T10:35:09;10.00;;;5.70;;
17153;SDS011;8692;52.164;7.558;2022-12-18T10:40:33;8.67;;;4.77;;
17153;SDS011;8692;52.164;7.558;2022-12-18T10:43:20;10.93;;;5.37;;
17153;SDS011;8692;52.164;7.558;2022-12-18T10:46:00;9.43;;;5.10;;
17153;SDS011;8692;52.164;7.558;2022-12-18T10:48:33;8.33;;;5.70;;
17153;SDS011;8692;52.164;7.558;2022-12-18T10:51:04;8.87;;;5.60;;
17153;SDS011;8692;52.164;7.558;2022-12-18T10:53:41;10.10;;;5.43;;
17153;SDS011;8692;52.164;7.558;2022-12-18T10:56:12;10.77;;;6.03;;
17153;SDS011;8692;52.164;7.558;2022-12-18T10:58:55;9.03;;;6.20;;
17153;SDS011;8692;52.164;7.558;2022-12-18T11:01:25;9.27;;;5.80;;
17153;SDS011;8692;52.164;7.558;2022-12-18T11:04:02;12.27;;;6.00;;
17153;SDS011;8692;52.164;7.558;2022-12-18T11:06:35;7.67;;;5.60;;
17153;SDS011;8692;52.164;7.558;2022-12-18T11:09:24;10.87;;;6.23;;
17153;SDS011;8692;52.164;7.558;2022-12-18T11:11:56;9.20;;;5.50;;
17153;SDS011;8692;52.164;7.558;2022-12-18T11:14:30;11.20;;;6.33;;
17153;SDS011;8692;52.164;7.558;2022-12-18T11:17:01;9.77;;;6.23;;
17153;SDS011;8692;52.164;7.558;2022-12-18T11:19:52;9.37;;;5.30;;
17153;SDS011;8692;52.164;7.558;2022-12-18T11:22:23;8.73;;;5.60;;
17153;SDS011;8692;52.164;7.558;2022-12-18T11:24:55;9.90;;;5.80;;
17153;SDS011;8692;52.164;7.558;2022-12-18T11:27:49;10.23;;;5.07;;
17153;SDS011;8692;52.164;7.558;2022-12-18T11:30:24;9.83;;;5.63;;
17153;SDS011;8692;52.164;7.558;2022-12-18T11:32:58;10.90;;;5.50;;
17153;SDS011;8692;52.164;7.558;2022-12-18T11:35:33;9.17;;;5.83;;
17153;SDS011;8692;52.164;7.558;2022-12-18T11:38:06;11.20;;;5.90;;
17153;SDS011;8692;52.164;7.558;2022-12-18T11:40:45;10.73;;;5.63;;
17153;SDS011;8692;52.164;7.558;2022-12-18T11:43:21;9.00;;;6.13;;
17153;SDS011;8692;52.164;7.558;2022-12-18T11:45:59;12.70;;;5.47;;
17153;SDS011;8692;52.164;7.558;2022-12-18T11:48:30;10.43;;;6.00;;
17153;SDS011;8692;52.164;7.558;2022-12-18T11:51:02;7.20;;;5.80;;
17153;SDS011;8692;52.164;7.558;2022-12-18T11:53:32;8.53;;;6.73;;
17153;SDS011;8692;52.164;7.558;2022-12-18T11:56:12;9.40;;;5.63;;
17153;SDS011;8692;52.164;7.558;2022-12-18T11:58:59;10.50;;;5.90;;
17153;SDS011;8692;52.164;7.558;2022-12-18T12:01:41;9.10;;;5.67;;
17153;SDS011;8692;52.164;7.558;2022-12-18T12:04:22;7.97;;;5.50;;
17153;SDS011;8692;52.164;7.558;2022-12-18T12:07:12;8.93;;;5.67;;
17153;SDS011;8692;52.164;7.558;2022-12-18T12:09:50;8.37;;;5.80;;
17153;SDS011;8692;52.164;7.558;2022-12-18T12:12:29;8.37;;;5.30;;
17153;SDS011;8692;52.164;7.558;2022-12-18T12:15:17;9.27;;;5.83;;
17153;SDS011;8692;52.164;7.558;2022-12-18T12:18:01;12.17;;;6.70;;
17153;SDS011;8692;52.164;7.558;2022-12-18T12:20:40;7.50;;;5.17;;
17153;SDS011;8692;52.164;7.558;2022-12-18T12:23:14;10.20;;;6.40;;
17153;SDS011;8692;52.164;7.558;2022-12-18T12:25:54;7.60;;;6.27;;
17153;SDS011;8692;52.164;7.558;2022-12-18T12:28:34;8.57;;;6.27;;
17153;SDS011;8692;52.164;7.558;2022-12-18T12:31:31;10.10;;;6.43;;
17153;SDS011;8692;52.164;7.558;2022-12-18T12:34:12;9.43;;;5.90;;
17153;SDS011;8692;52.164;7.558;2022-12-18T12:36:48;8.47;;;5.83;;
17153;SDS011;8692;52.164;7.558;2022-12-18T12:39:30;9.13;;;5.77;;
17153;SDS011;8692;52.164;7.558;2022-12-18T12:42:02;10.90;;;6.13;;
17153;SDS011;8692;52.164;7.558;2022-12-18T12:44:54;11.20;;;6.93;;
17153;SDS011;8692;52.164;7.558;2022-12-18T12:47:25;9.10;;;6.00;;
17153;SDS011;8692;52.164;7.558;2022-12-18T12:50:11;12.03;;;6.57;;
17153;SDS011;8692;52.164;7.558;2022-12-18T12:52:45;8.03;;;5.67;;
17153;SDS011;8692;52.164;7.558;2022-12-18T12:55:16;7.93;;;5.93;;
17153;SDS011;8692;52.164;7.558;2022-12-18T12:57:48;9.83;;;5.37;;
17153;SDS011;8692;52.164;7.558;2022-12-18T13:00:25;9.30;;;6.80;;
17153;SDS011;8692;52.164;7.558;2022-12-18T13:02:59;9.17;;;5.70;;
17153;SDS011;8692;52.164;7.558;2022-12-18T13:05:38;7.30;;;4.97;;
17153;SDS011;8692;52.164;7.558;2022-12-18T13:08:12;9.00;;;5.90;;
17153;SDS011;8692;52.164;7.558;2022-12-18T13:10:50;6.97;;;5.20;;
17153;SDS011;8692;52.164;7.558;2022-12-18T13:13:48;10.07;;;5.87;;
17153;SDS011;8692;52.164;7.558;2022-12-18T13:16:18;7.33;;;5.23;;
17153;SDS011;8692;52.164;7.558;2022-12-18T13:18:48;8.87;;;5.47;;
17153;SDS011;8692;52.164;7.558;2022-12-18T13:21:23;7.80;;;4.77;;
17153;SDS011;8692;52.164;7.558;2022-12-18T13:23:54;8.33;;;5.10;;
17153;SDS011;8692;52.164;7.558;2022-12-18T13:26:29;10.77;;;6.03;;
17153;SDS011;8692;52.164;7.558;2022-12-18T13:29:00;7.20;;;5.10;;
17153;SDS011;8692;52.164;7.558;2022-12-18T13:34:25;7.23;;;5.07;;
17153;SDS011;8692;52.164;7.558;2022-12-18T13:43:24;9.73;;;5.20;;
17153;SDS011;8692;52.164;7.558;2022-12-18T13:46:04;9.47;;;5.23;;
17153;SDS011;8692;52.164;7.558;2022-12-18T13:48:54;6.10;;;4.80;;
17153;SDS011;8692;52.164;7.558;2022-12-18T13:51:24;7.13;;;4.93;;
17153;SDS011;8692;52.164;7.558;2022-12-18T13:53:56;7.20;;;5.10;;
17153;SDS011;8692;52.164;7.558;2022-12-18T13:56:27;8.90;;;5.27;;
17153;SDS011;8692;52.164;7.558;2022-12-18T13:59:05;8.00;;;4.53;;
17153;SDS011;8692;52.164;7.558;2022-12-18T14:01:49;6.27;;;4.23;;
17153;SDS011;8692;52.164;7.558;2022-12-18T14:04:25;8.70;;;4.30;;
17153;SDS011;8692;52.164;7.558;2022-12-18T14:06:56;5.50;;;4.33;;
17153;SDS011;8692;52.164;7.558;2022-12-18T14:09:30;6.37;;;4.60;;
17153;SDS011;8692;52.164;7.558;2022-12-18T14:12:12;7.80;;;4.53;;
17153;SDS011;8692;52.164;7.558;2022-12-18T14:15:00;5.60;;;3.90;;
17153;SDS011;8692;52.164;7.558;2022-12-18T14:17:32;5.27;;;4.33;;
17153;SDS011;8692;52.164;7.558;2022-12-18T14:20:04;5.87;;;3.87;;
17153;SDS011;8692;52.164;7.558;2022-12-18T14:22:43;7.70;;;4.80;;
17153;SDS011;8692;52.164;7.558;2022-12-18T14:25:18;6.57;;;4.40;;
17153;SDS011;8692;52.164;7.558;2022-12-18T14:27:48;6.40;;;4.40;;
17153;SDS011;8692;52.164;7.558;2022-12-18T14:30:23;7.53;;;3.80;;
17153;SDS011;8692;52.164;7.558;2022-12-18T14:33:01;6.63;;;4.37;;
17153;SDS011;8692;52.164;7.558;2022-12-18T14:35:37;6.17;;;4.13;;
17153;SDS011;8692;52.164;7.558;2022-12-18T14:38:20;6.17;;;4.37;;
17153;SDS011;8692;52.164;7.558;2022-12-18T14:40:55;5.57;;;4.33;;
17153;SDS011;8692;52.164;7.558;2022-12-18T14:43:28;6.33;;;3.83;;
17153;SDS011;8692;52.164;7.558;2022-12-18T14:46:01;5.13;;;3.50;;
17153;SDS011;8692;52.164;7.558;2022-12-18T14:48:37;6.20;;;4.30;;
17153;SDS011;8692;52.164;7.558;2022-12-18T14:51:14;7.53;;;4.53;;
17153;SDS011;8692;52.164;7.558;2022-12-18T14:53:47;6.43;;;3.70;;
17153;SDS011;8692;52.164;7.558;2022-12-18T14:56:22;6.40;;;4.00;;
17153;SDS011;8692;52.164;7.558;2022-12-18T14:58:52;7.33;;;4.10;;
17153;SDS011;8692;52.164;7.558;2022-12-18T15:01:26;9.57;;;4.07;;
17153;SDS011;8692;52.164;7.558;2022-12-18T15:03:58;5.30;;;3.43;;
17153;SDS011;8692;52.164;7.558;2022-12-18T15:06:28;5.33;;;3.70;;
17153;SDS011;8692;52.164;7.558;2022-12-18T15:08:59;6.40;;;3.83;;
17153;SDS011;8692;52.164;7.558;2022-12-18T15:11:33;5.67;;;3.83;;
17153;SDS011;8692;52.164;7.558;2022-12-18T15:14:23;6.73;;;3.43;;
17153;SDS011;8692;52.164;7.558;2022-12-18T15:16:58;5.40;;;3.73;;
17153;SDS011;8692;52.164;7.558;2022-12-18T15:19:32;5.27;;;3.50;;
17153;SDS011;8692;52.164;7.558;2022-12-18T15:22:17;6.13;;;3.60;;
17153;SDS011;8692;52.164;7.558;2022-12-18T15:24:48;7.00;;;4.07;;
17153;SDS011;8692;52.164;7.558;2022-12-18T15:27:25;7.00;;;3.97;;
17153;SDS011;8692;52.164;7.558;2022-12-18T15:30:02;5.40;;;3.50;;
17153;SDS011;8692;52.164;7.558;2022-12-18T15:32:47;4.70;;;3.47;;
17153;SDS011;8692;52.164;7.558;2022-12-18T15:35:17;8.20;;;3.30;;
17153;SDS011;8692;52.164;7.558;2022-12-18T15:37:47;6.47;;;3.90;;